createdAt,value
2019-02-10T00:01:49.249Z,92.60
2019-02-10T00:05:08.162Z,92.50
2019-02-10T00:08:16.627Z,92.50
2019-02-10T00:11:25.327Z,92.70
2019-02-10T00:14:34.104Z,92.70
2019-02-10T00:17:42.763Z,92.90
2019-02-10T00:20:51.291Z,92.90
2019-02-10T00:24:00.148Z,92.90
2019-02-10T00:27:08.765Z,93.10
2019-02-10T00:30:27.596Z,93.50
2019-02-10T00:33:36.885Z,94.00
2019-02-10T00:36:46.163Z,94.20
2019-02-10T00:39:54.750Z,94.40
2019-02-10T00:43:04.685Z,94.50
2019-02-10T00:46:23.643Z,94.50
2019-02-10T00:49:32.206Z,94.50
2019-02-10T00:52:40.849Z,94.50
2019-02-10T00:55:49.437Z,94.40
2019-02-10T00:58:58.038Z,94.30
2019-02-10T01:02:06.995Z,94.40
2019-02-10T01:05:15.558Z,94.30
2019-02-10T01:08:35.289Z,94.20
2019-02-10T01:11:45.471Z,94.20
2019-02-10T01:14:54.049Z,94.50
2019-02-10T01:18:02.705Z,94.60
2019-02-10T01:21:21.611Z,94.70
2019-02-10T01:24:30.112Z,94.70
2019-02-10T01:27:38.700Z,94.80
2019-02-10T01:30:48.923Z,94.90
2019-02-10T01:33:57.532Z,94.80
2019-02-10T01:37:06.223Z,95.00
2019-02-10T01:40:14.957Z,95.20
2019-02-10T01:43:33.687Z,95.40
2019-02-10T01:46:42.255Z,95.40
2019-02-10T01:49:50.820Z,95.40
2019-02-10T01:52:59.575Z,95.60
2019-02-10T01:56:08.137Z,95.60
2019-02-10T01:59:16.737Z,95.70
2019-02-10T02:02:25.390Z,95.70
2019-02-10T02:05:44.794Z,95.70
2019-02-10T02:09:05.233Z,95.60
2019-02-10T02:12:13.937Z,95.60
2019-02-10T02:15:22.487Z,95.60
2019-02-10T02:18:31.068Z,95.60
2019-02-10T02:21:39.747Z,95.50
2019-02-10T02:24:48.371Z,95.50
2019-02-10T02:27:57.153Z,95.60
2019-02-10T02:31:05.808Z,95.50
2019-02-10T02:34:24.509Z,95.70
2019-02-10T02:37:32.976Z,95.70
2019-02-10T02:40:41.739Z,95.60
2019-02-10T02:43:50.316Z,95.60
2019-02-10T02:46:58.874Z,95.50
2019-02-10T02:50:10.295Z,95.50
2019-02-10T02:53:18.799Z,95.50
2019-02-10T02:56:27.268Z,95.30
2019-02-10T02:59:35.846Z,95.20
2019-02-10T03:02:44.520Z,95.30
2019-02-10T03:05:53.087Z,95.30
2019-02-10T03:09:11.848Z,95.20
2019-02-10T03:12:20.324Z,95.20
2019-02-10T03:15:28.895Z,95.10
2019-02-10T03:18:38.152Z,95.10
2019-02-10T03:21:46.827Z,95.20
2019-02-10T03:24:55.416Z,95.10
2019-02-10T03:28:03.996Z,95.10
2019-02-10T03:31:12.581Z,95.10
2019-02-10T03:34:21.129Z,95.00
2019-02-10T03:37:40.016Z,95.10
2019-02-10T03:40:48.717Z,95.10
2019-02-10T03:43:57.272Z,95.00
2019-02-10T03:47:06.953Z,94.90
2019-02-10T03:50:25.891Z,94.90
2019-02-10T03:53:34.445Z,94.90
2019-02-10T03:56:43.014Z,94.90
2019-02-10T03:59:51.462Z,94.90
2019-02-10T04:03:00.126Z,94.80
2019-02-10T04:06:08.704Z,94.90
2019-02-10T04:09:27.507Z,94.70
2019-02-10T04:12:38.106Z,94.70
2019-02-10T04:15:46.578Z,94.70
2019-02-10T04:18:55.120Z,94.50
2019-02-10T04:22:03.789Z,94.50
2019-02-10T04:25:12.271Z,94.30
2019-02-10T04:28:20.898Z,94.40
2019-02-10T04:31:39.758Z,94.30
2019-02-10T04:34:48.501Z,94.20
2019-02-10T04:37:56.961Z,94.30
2019-02-10T04:41:05.954Z,94.30
2019-02-10T04:44:14.428Z,94.30
2019-02-10T04:47:22.982Z,94.30
2019-02-10T04:50:31.608Z,94.30
2019-02-10T04:53:40.175Z,94.20
2019-02-10T04:56:59.026Z,94.30
2019-02-10T05:00:08.793Z,94.30
2019-02-10T05:03:17.353Z,94.20
2019-02-10T05:06:25.898Z,94.20
2019-02-10T05:09:45.010Z,94.20
2019-02-10T05:12:53.664Z,94.20
2019-02-10T05:16:02.226Z,94.20
2019-02-10T05:19:10.788Z,94.20
2019-02-10T05:22:19.501Z,94.00
2019-02-10T05:25:28.085Z,94.00
2019-02-10T05:28:46.786Z,94.20
2019-02-10T05:31:55.426Z,93.80
2019-02-10T05:35:03.993Z,93.70
2019-02-10T05:38:12.472Z,93.70
2019-02-10T05:41:21.104Z,93.70
2019-02-10T05:44:29.667Z,93.80
2019-02-10T05:47:48.485Z,93.60
2019-02-10T05:50:57.095Z,93.60
2019-02-10T05:54:05.776Z,93.60
2019-02-10T05:57:14.317Z,93.60
2019-02-10T06:00:23.128Z,93.70
2019-02-10T06:03:31.755Z,93.80
2019-02-10T06:06:40.349Z,93.70
2019-02-10T06:09:49.284Z,93.90
2019-02-10T06:12:57.828Z,93.90
2019-02-10T06:16:16.628Z,94.10
2019-02-10T06:19:26.294Z,94.00
2019-02-10T06:22:34.859Z,94.30
2019-02-10T06:25:53.606Z,94.90
2019-02-10T06:29:02.110Z,96.00
2019-02-10T06:32:10.683Z,96.90
2019-02-10T06:35:19.244Z,97.00
2019-02-10T06:38:28.111Z,96.90
2019-02-10T06:41:36.790Z,97.10
2019-02-10T06:44:45.434Z,97.30
2019-02-10T06:47:53.978Z,97.30
2019-02-10T06:51:17.577Z,97.30
2019-02-10T06:54:26.144Z,97.50
2019-02-10T06:57:34.707Z,97.50
2019-02-10T07:01:07.747Z,97.60
2019-02-10T07:04:22.651Z,97.60
2019-02-10T07:07:31.112Z,97.40
2019-02-10T07:10:49.942Z,97.30
2019-02-10T07:14:03.413Z,97.50
2019-02-10T07:18:07.889Z,97.60
2019-02-10T07:21:16.358Z,97.90
2019-02-10T07:24:40.169Z,97.90
2019-02-10T07:27:49.401Z,98.10
2019-02-10T07:30:58.213Z,98.10
2019-02-10T07:35:08.298Z,98.10
2019-02-10T07:39:05.246Z,98.10
2019-02-10T07:42:53.828Z,98.20
2019-02-10T07:46:59.221Z,98.50
2019-02-10T07:51:02.734Z,98.80
2019-02-10T07:55:03.091Z,99.00
2019-02-10T07:59:19.404Z,99.10
2019-02-10T08:03:02.241Z,99.50
2019-02-10T08:06:26.717Z,99.50
2019-02-10T08:10:38.480Z,99.40
2019-02-10T08:14:27.546Z,99.50
2019-02-10T08:18:30.968Z,99.80
2019-02-10T08:21:57.857Z,99.70
2019-02-10T08:26:00.199Z,99.70
2019-02-10T08:29:25.992Z,99.90
2019-02-10T08:32:59.619Z,99.70
2019-02-10T08:36:58.992Z,99.70
2019-02-10T08:41:11.968Z,99.90
2019-02-10T08:45:06.957Z,99.70
2019-02-10T08:49:29.909Z,99.50
2019-02-10T08:52:52.153Z,99.30
2019-02-10T08:56:01.041Z,99.70
2019-02-10T08:59:09.577Z,99.80
2019-02-10T09:02:28.792Z,99.90
2019-02-10T09:05:37.244Z,99.90
2019-02-10T09:08:45.704Z,99.90
2019-02-10T09:11:54.238Z,99.90
2019-02-10T09:15:13.287Z,99.90
2019-02-10T09:18:32.355Z,99.90
2019-02-10T09:21:40.992Z,99.90
2019-02-10T09:24:50.049Z,99.90
2019-02-10T09:27:58.631Z,99.90
2019-02-10T09:31:07.346Z,99.90
2019-02-10T09:34:15.905Z,99.90
2019-02-10T09:37:24.472Z,99.90
2019-02-10T09:40:32.961Z,99.90
2019-02-10T09:43:41.491Z,99.90
2019-02-10T09:47:00.405Z,99.90
2019-02-10T09:50:16.215Z,99.90
2019-02-10T09:53:37.972Z,99.90
2019-02-10T09:56:46.528Z,99.90
2019-02-10T09:59:55.093Z,99.90
2019-02-10T10:03:03.648Z,99.90
2019-02-10T10:06:12.145Z,99.90
2019-02-10T10:09:30.868Z,99.90
2019-02-10T10:12:39.548Z,99.90
2019-02-10T10:15:48.110Z,99.90
2019-02-10T10:18:56.658Z,99.90
2019-02-10T10:22:05.221Z,99.90
2019-02-10T10:25:23.854Z,99.90
2019-02-10T10:28:32.392Z,99.90
2019-02-10T10:31:41.083Z,99.90
2019-02-10T10:34:49.617Z,99.90
2019-02-10T10:37:58.205Z,99.90
2019-02-10T10:41:06.876Z,99.90
2019-02-10T10:44:15.453Z,99.90
2019-02-10T10:47:34.397Z,99.90
2019-02-10T10:50:42.979Z,99.90
2019-02-10T10:53:51.527Z,99.90
2019-02-10T10:56:59.993Z,99.90
2019-02-10T11:00:10.403Z,99.90
2019-02-10T11:03:18.861Z,99.90
2019-02-10T11:06:37.768Z,99.90
2019-02-10T11:09:46.621Z,99.90
2019-02-10T11:12:55.198Z,99.90
2019-02-10T11:16:03.732Z,99.90
2019-02-10T11:19:12.310Z,99.90
2019-02-10T11:22:20.891Z,99.90
2019-02-10T11:25:29.523Z,99.90
2019-02-10T11:28:48.378Z,99.90
2019-02-10T11:31:56.994Z,99.90
2019-02-10T11:35:05.685Z,99.90
2019-02-10T11:38:14.246Z,99.90
2019-02-10T11:41:22.909Z,99.90
2019-02-10T11:44:31.462Z,99.90
2019-02-10T11:47:41.166Z,99.90
2019-02-10T11:50:49.632Z,99.90
2019-02-10T11:54:04.335Z,99.90
2019-02-10T11:57:12.874Z,99.90
2019-02-10T12:00:31.714Z,99.90
2019-02-10T12:03:40.273Z,99.90
2019-02-10T12:06:48.933Z,99.90
2019-02-10T12:09:57.571Z,99.90
2019-02-10T12:13:04.715Z,99.90
2019-02-10T12:16:13.306Z,99.90
2019-02-10T12:19:21.789Z,99.90
2019-02-10T12:22:40.787Z,99.90
2019-02-10T12:25:49.366Z,99.90
2019-02-10T12:28:57.927Z,99.90
2019-02-10T12:32:06.518Z,99.90
2019-02-10T12:35:15.333Z,99.90
2019-02-10T12:38:23.910Z,99.90
2019-02-10T12:41:32.733Z,99.90
2019-02-10T12:44:41.349Z,99.90
2019-02-10T12:48:00.145Z,99.90
2019-02-10T12:51:08.737Z,99.90
2019-02-10T12:54:17.306Z,99.90
2019-02-10T12:57:25.856Z,99.90
2019-02-10T13:00:34.744Z,99.90
2019-02-10T13:03:43.192Z,99.90
2019-02-10T13:06:51.769Z,99.90
2019-02-10T13:10:13.462Z,99.90
2019-02-10T13:13:21.973Z,99.90
2019-02-10T13:16:30.466Z,99.90
2019-02-10T13:19:39.030Z,99.90
2019-02-10T13:22:58.110Z,99.90
2019-02-10T13:26:05.176Z,99.90
2019-02-10T13:29:13.744Z,99.90
2019-02-10T13:32:22.206Z,99.90
2019-02-10T13:35:30.796Z,99.90
2019-02-10T13:38:39.243Z,99.90
2019-02-10T13:41:55.792Z,99.90
2019-02-10T13:45:04.916Z,99.90
2019-02-10T13:48:13.460Z,99.90
2019-02-10T13:51:21.961Z,99.90
2019-02-10T13:54:30.556Z,99.90
2019-02-10T13:57:49.513Z,99.90
2019-02-10T14:00:58.064Z,99.90
2019-02-10T14:04:06.605Z,99.90
2019-02-10T14:07:15.085Z,99.90
2019-02-10T14:10:25.742Z,99.90
2019-02-10T14:13:33.984Z,99.90
2019-02-10T14:16:52.886Z,99.90
2019-02-10T14:20:01.340Z,99.90
2019-02-10T14:23:09.896Z,99.90
2019-02-10T14:26:18.503Z,99.90
2019-02-10T14:29:27.076Z,99.90
2019-02-10T14:32:45.861Z,99.90
2019-02-10T14:35:55.387Z,99.90
2019-02-10T14:39:05.301Z,99.90
2019-02-10T14:42:12.873Z,99.90
2019-02-10T14:45:21.523Z,99.90
2019-02-10T14:48:40.399Z,99.90
2019-02-10T14:51:49.014Z,99.90
2019-02-10T14:54:57.447Z,99.90
2019-02-10T14:58:06.132Z,99.90
2019-02-10T15:01:14.639Z,99.90
2019-02-10T15:04:33.329Z,99.90
2019-02-10T15:07:41.913Z,99.90
2019-02-10T15:10:50.530Z,99.90
2019-02-10T15:13:59.354Z,99.90
2019-02-10T15:17:07.904Z,99.90
2019-02-10T15:20:16.454Z,99.90
2019-02-10T15:23:25.078Z,99.90
2019-02-10T15:26:43.861Z,99.90
2019-02-10T15:29:52.330Z,99.90
2019-02-10T15:33:00.887Z,99.90
2019-02-10T15:36:09.485Z,99.90
2019-02-10T15:39:17.972Z,99.90
2019-02-10T15:42:36.916Z,99.90
2019-02-10T15:45:45.368Z,99.90
2019-02-10T15:48:53.805Z,99.90
2019-02-10T15:52:02.352Z,99.90
2019-02-10T15:55:20.995Z,99.90
2019-02-10T15:58:29.599Z,99.90
2019-02-10T16:01:38.196Z,99.90
2019-02-10T16:04:46.687Z,99.90
2019-02-10T16:07:55.160Z,99.90
2019-02-10T16:11:13.983Z,99.90
2019-02-10T16:14:22.431Z,99.90
2019-02-10T16:17:30.861Z,99.90
2019-02-10T16:20:39.504Z,99.90
2019-02-10T16:23:48.112Z,99.90
2019-02-10T16:27:06.892Z,99.90
2019-02-10T16:30:15.704Z,99.90
2019-02-10T16:33:24.132Z,99.90
2019-02-10T16:36:32.591Z,99.90
2019-02-10T16:39:41.072Z,99.90
2019-02-10T16:42:59.798Z,99.90
2019-02-10T16:46:08.258Z,99.90
2019-02-10T16:49:16.822Z,99.90
2019-02-10T16:52:25.409Z,99.90
2019-02-10T16:55:33.886Z,99.90
2019-02-10T16:58:52.756Z,99.90
2019-02-10T17:02:01.788Z,99.90
2019-02-10T17:05:09.392Z,99.90
2019-02-10T17:08:28.123Z,99.90
2019-02-10T17:11:36.685Z,99.90
2019-02-10T17:14:45.200Z,99.90
2019-02-10T17:17:53.625Z,99.90
2019-02-10T17:21:12.325Z,99.90
2019-02-10T17:24:20.787Z,99.90
2019-02-10T17:27:29.313Z,99.90
2019-02-10T17:30:37.843Z,99.90
2019-02-10T17:33:46.320Z,99.90
2019-02-10T17:37:05.260Z,99.90
2019-02-10T17:40:20.001Z,99.90
2019-02-10T17:43:28.588Z,99.90
2019-02-10T17:46:37.035Z,99.90
2019-02-10T17:49:58.860Z,99.90
2019-02-10T17:53:07.330Z,99.90
2019-02-10T17:56:15.798Z,99.90
2019-02-10T17:59:24.239Z,99.90
2019-02-10T18:02:32.902Z,99.90
2019-02-10T18:05:51.735Z,99.90
2019-02-10T18:09:00.268Z,99.90
2019-02-10T18:12:08.753Z,99.90
2019-02-10T18:15:34.433Z,99.90
2019-02-10T18:19:13.977Z,99.90
2019-02-10T18:22:53.356Z,99.90
2019-02-10T18:26:19.264Z,99.90
2019-02-10T18:29:43.737Z,99.40
2019-02-10T18:33:00.249Z,99.60
2019-02-10T18:36:30.598Z,99.20
2019-02-10T18:39:46.389Z,99.20
2019-02-10T18:43:39.511Z,99.60
2019-02-10T18:46:55.034Z,98.90
2019-02-10T18:50:12.228Z,98.50
2019-02-10T18:53:38.630Z,98.70
2019-02-10T18:57:11.944Z,98.60
2019-02-10T19:00:56.454Z,99.00
2019-02-10T19:04:31.165Z,98.80
2019-02-10T19:07:45.749Z,98.60
2019-02-10T19:11:10.985Z,98.70
2019-02-10T19:14:43.117Z,98.00
2019-02-10T19:18:20.102Z,97.90
2019-02-10T19:21:35.820Z,97.70
2019-02-10T19:25:24.611Z,98.00
2019-02-10T19:28:52.077Z,98.30
2019-02-10T19:32:13.186Z,98.90
2019-02-10T19:35:39.298Z,99.80
2019-02-10T19:39:29.676Z,99.70
2019-02-10T19:42:44.648Z,99.90
2019-02-10T19:46:06.197Z,99.90
2019-02-10T19:49:32.117Z,99.90
2019-02-10T19:53:09.531Z,99.90
2019-02-10T19:56:45.924Z,99.90
2019-02-10T20:00:06.773Z,99.90
2019-02-10T20:03:46.245Z,99.90
2019-02-10T20:07:12.160Z,99.90
2019-02-10T20:10:31.097Z,99.90
2019-02-10T20:13:58.449Z,99.90
2019-02-10T20:17:15.380Z,99.90
2019-02-10T20:20:54.733Z,99.90
2019-02-10T20:24:31.039Z,99.90
2019-02-10T20:28:07.692Z,99.90
2019-02-10T20:31:45.688Z,99.90
2019-02-10T20:35:27.601Z,99.90
2019-02-10T20:39:19.290Z,99.90
2019-02-10T20:42:34.494Z,99.90
2019-02-10T20:46:10.636Z,99.90
2019-02-10T20:49:38.228Z,99.90
2019-02-10T20:53:32.921Z,99.90
2019-02-10T20:56:48.072Z,99.90
2019-02-10T21:00:03.773Z,99.90
2019-02-10T21:03:43.706Z,99.90
2019-02-10T21:07:37.938Z,99.90
2019-02-10T21:11:07.241Z,99.80
2019-02-10T21:15:01.876Z,99.90
2019-02-10T21:18:30.447Z,99.90
2019-02-10T21:22:11.244Z,99.90
2019-02-10T21:25:32.922Z,99.90
2019-02-10T21:28:55.099Z,99.90
2019-02-10T21:32:41.351Z,99.90
2019-02-10T21:36:12.608Z,99.90
2019-02-10T21:40:03.282Z,99.90
2019-02-10T21:43:43.891Z,99.90
2019-02-10T21:47:12.547Z,99.90
2019-02-10T21:50:23.583Z,99.90
2019-02-10T21:53:38.201Z,99.90
2019-02-10T21:56:50.139Z,99.90
2019-02-10T21:59:58.730Z,99.90
2019-02-10T22:03:20.407Z,99.90
2019-02-10T22:06:41.587Z,99.90
2019-02-10T22:10:02.899Z,99.90
2019-02-10T22:13:13.704Z,99.90
2019-02-10T22:16:22.381Z,99.90
2019-02-10T22:19:30.979Z,99.90
2019-02-10T22:22:39.516Z,99.90
2019-02-10T22:25:47.952Z,99.90
2019-02-10T22:28:59.272Z,99.90
2019-02-10T22:32:07.895Z,99.90
2019-02-10T22:35:16.332Z,99.90
2019-02-10T22:38:24.918Z,99.90
2019-02-10T22:41:43.830Z,99.90
2019-02-10T22:44:55.153Z,99.90
2019-02-10T22:48:05.742Z,99.90
2019-02-10T22:51:17.149Z,99.90
2019-02-10T22:54:38.544Z,99.90
2019-02-10T22:57:48.050Z,99.90
2019-02-10T23:01:04.539Z,99.90
2019-02-10T23:04:14.139Z,99.90
2019-02-10T23:07:34.715Z,99.90
2019-02-10T23:10:46.141Z,99.90
2019-02-10T23:13:56.193Z,99.90
2019-02-10T23:17:05.616Z,99.90
2019-02-10T23:20:16.137Z,99.90
2019-02-10T23:23:29.976Z,99.90
2019-02-10T23:26:38.627Z,99.90
2019-02-10T23:29:47.103Z,99.90
2019-02-10T23:32:55.565Z,99.90
2019-02-10T23:36:04.079Z,99.90
2019-02-10T23:39:12.645Z,99.90
2019-02-10T23:42:31.620Z,99.90
2019-02-10T23:45:40.233Z,99.90
2019-02-10T23:48:48.735Z,99.90
2019-02-10T23:51:57.358Z,99.90
2019-02-10T23:55:06.101Z,99.90
2019-02-10T23:58:14.549Z,99.90
